sensor_id;sensor_type;location;lat;lon;timestamp;P1;durP1;ratioP1;P2;durP2;ratioP2
80241;SDS011;69556;45.004;7.532;2024-02-14T00:01:18;16.77;;;8.10;;
80241;SDS011;69556;45.004;7.532;2024-02-14T00:03:43;18.70;;;7.93;;
80241;SDS011;69556;45.004;7.532;2024-02-14T00:06:09;14.85;;;8.02;;
80241;SDS011;69556;45.004;7.532;2024-02-14T00:08:34;16.95;;;8.18;;
80241;SDS011;69556;45.004;7.532;2024-02-14T00:11:00;12.20;;;7.57;;
80241;SDS011;69556;45.004;7.532;2024-02-14T00:13:27;16.85;;;9.10;;
80241;SDS011;69556;45.004;7.532;2024-02-14T00:15:52;16.13;;;9.32;;
80241;SDS011;69556;45.004;7.532;2024-02-14T00:18:18;14.07;;;8.25;;
80241;SDS011;69556;45.004;7.532;2024-02-14T00:20:44;15.05;;;7.82;;
80241;SDS011;69556;45.004;7.532;2024-02-14T00:23:09;18.73;;;9.02;;
80241;SDS011;69556;45.004;7.532;2024-02-14T00:25:36;15.98;;;8.32;;
80241;SDS011;69556;45.004;7.532;2024-02-14T00:28:02;16.75;;;9.35;;
80241;SDS011;69556;45.004;7.532;2024-02-14T00:30:28;15.63;;;8.50;;
80241;SDS011;69556;45.004;7.532;2024-02-14T00:32:54;19.38;;;10.45;;
80241;SDS011;69556;45.004;7.532;2024-02-14T00:35:19;19.43;;;9.97;;
80241;SDS011;69556;45.004;7.532;2024-02-14T00:37:45;16.88;;;9.70;;
80241;SDS011;69556;45.004;7.532;2024-02-14T00:40:10;15.87;;;8.53;;
80241;SDS011;69556;45.004;7.532;2024-02-14T00:42:36;23.80;;;9.68;;
80241;SDS011;69556;45.004;7.532;2024-02-14T00:45:01;16.77;;;8.57;;
80241;SDS011;69556;45.004;7.532;2024-02-14T00:47:28;19.13;;;9.77;;
80241;SDS011;69556;45.004;7.532;2024-02-14T00:49:53;14.55;;;8.93;;
80241;SDS011;69556;45.004;7.532;2024-02-14T00:52:18;14.90;;;9.10;;
80241;SDS011;69556;45.004;7.532;2024-02-14T00:54:46;16.15;;;8.63;;
80241;SDS011;69556;45.004;7.532;2024-02-14T00:57:12;16.70;;;9.45;;
80241;SDS011;69556;45.004;7.532;2024-02-14T00:59:37;20.70;;;9.32;;
80241;SDS011;69556;45.004;7.532;2024-02-14T01:02:03;20.02;;;10.35;;
80241;SDS011;69556;45.004;7.532;2024-02-14T01:04:29;13.98;;;8.73;;
80241;SDS011;69556;45.004;7.532;2024-02-14T01:06:54;18.45;;;9.45;;
80241;SDS011;69556;45.004;7.532;2024-02-14T01:09:20;24.13;;;10.67;;
80241;SDS011;69556;45.004;7.532;2024-02-14T01:11:45;16.88;;;9.73;;
80241;SDS011;69556;45.004;7.532;2024-02-14T01:14:10;15.07;;;8.73;;
80241;SDS011;69556;45.004;7.532;2024-02-14T01:16:42;23.13;;;10.80;;
80241;SDS011;69556;45.004;7.532;2024-02-14T01:19:08;19.27;;;9.85;;
80241;SDS011;69556;45.004;7.532;2024-02-14T01:21:35;21.05;;;10.60;;
80241;SDS011;69556;45.004;7.532;2024-02-14T01:24:00;17.63;;;9.57;;
80241;SDS011;69556;45.004;7.532;2024-02-14T01:26:25;19.73;;;10.23;;
80241;SDS011;69556;45.004;7.532;2024-02-14T01:28:51;19.10;;;10.25;;
80241;SDS011;69556;45.004;7.532;2024-02-14T01:31:16;20.17;;;9.00;;
80241;SDS011;69556;45.004;7.532;2024-02-14T01:33:42;17.50;;;9.45;;
80241;SDS011;69556;45.004;7.532;2024-02-14T01:36:08;21.35;;;10.02;;
80241;SDS011;69556;45.004;7.532;2024-02-14T01:38:33;18.60;;;9.57;;
80241;SDS011;69556;45.004;7.532;2024-02-14T01:41:00;17.70;;;9.77;;
80241;SDS011;69556;45.004;7.532;2024-02-14T01:43:27;16.10;;;9.55;;
80241;SDS011;69556;45.004;7.532;2024-02-14T01:45:53;14.85;;;8.80;;
80241;SDS011;69556;45.004;7.532;2024-02-14T01:48:18;19.50;;;10.75;;
80241;SDS011;69556;45.004;7.532;2024-02-14T01:50:44;14.70;;;8.50;;
80241;SDS011;69556;45.004;7.532;2024-02-14T01:53:10;16.90;;;9.63;;
80241;SDS011;69556;45.004;7.532;2024-02-14T01:55:36;18.13;;;9.45;;
80241;SDS011;69556;45.004;7.532;2024-02-14T01:58:02;17.23;;;9.45;;
80241;SDS011;69556;45.004;7.532;2024-02-14T02:00:29;15.23;;;8.80;;
80241;SDS011;69556;45.004;7.532;2024-02-14T02:02:56;17.55;;;9.27;;
80241;SDS011;69556;45.004;7.532;2024-02-14T02:05:22;19.38;;;9.57;;
80241;SDS011;69556;45.004;7.532;2024-02-14T02:07:47;19.75;;;10.40;;
80241;SDS011;69556;45.004;7.532;2024-02-14T02:10:13;19.23;;;9.52;;
80241;SDS011;69556;45.004;7.532;2024-02-14T02:12:39;15.82;;;9.23;;
80241;SDS011;69556;45.004;7.532;2024-02-14T02:15:07;18.02;;;9.13;;
80241;SDS011;69556;45.004;7.532;2024-02-14T02:20:05;15.38;;;8.98;;
80241;SDS011;69556;45.004;7.532;2024-02-14T02:22:34;18.35;;;9.73;;
80241;SDS011;69556;45.004;7.532;2024-02-14T02:25:03;16.67;;;8.32;;
80241;SDS011;69556;45.004;7.532;2024-02-14T02:27:32;17.63;;;9.65;;
80241;SDS011;69556;45.004;7.532;2024-02-14T02:30:00;15.73;;;8.48;;
80241;SDS011;69556;45.004;7.532;2024-02-14T02:32:26;16.50;;;9.50;;
80241;SDS011;69556;45.004;7.532;2024-02-14T02:34:51;18.60;;;9.55;;
80241;SDS011;69556;45.004;7.532;2024-02-14T02:37:16;24.37;;;9.77;;
80241;SDS011;69556;45.004;7.532;2024-02-14T02:39:42;17.67;;;9.57;;
80241;SDS011;69556;45.004;7.532;2024-02-14T02:42:08;19.05;;;9.80;;
80241;SDS011;69556;45.004;7.532;2024-02-14T02:44:35;20.92;;;9.48;;
80241;SDS011;69556;45.004;7.532;2024-02-14T02:47:02;20.23;;;10.18;;
80241;SDS011;69556;45.004;7.532;2024-02-14T02:49:28;18.70;;;10.10;;
80241;SDS011;69556;45.004;7.532;2024-02-14T02:51:54;17.27;;;10.15;;
80241;SDS011;69556;45.004;7.532;2024-02-14T02:54:19;20.45;;;10.85;;
80241;SDS011;69556;45.004;7.532;2024-02-14T02:56:48;23.33;;;12.93;;
80241;SDS011;69556;45.004;7.532;2024-02-14T02:59:14;31.48;;;11.90;;
80241;SDS011;69556;45.004;7.532;2024-02-14T03:01:41;27.48;;;13.27;;
80241;SDS011;69556;45.004;7.532;2024-02-14T03:04:07;22.45;;;13.57;;
80241;SDS011;69556;45.004;7.532;2024-02-14T03:06:33;22.50;;;12.00;;
80241;SDS011;69556;45.004;7.532;2024-02-14T03:08:58;24.05;;;12.77;;
80241;SDS011;69556;45.004;7.532;2024-02-14T03:11:24;24.42;;;11.60;;
80241;SDS011;69556;45.004;7.532;2024-02-14T03:13:52;22.73;;;12.48;;
80241;SDS011;69556;45.004;7.532;2024-02-14T03:16:18;26.45;;;12.40;;
80241;SDS011;69556;45.004;7.532;2024-02-14T03:18:43;28.52;;;13.10;;
80241;SDS011;69556;45.004;7.532;2024-02-14T03:21:09;27.80;;;12.10;;
80241;SDS011;69556;45.004;7.532;2024-02-14T03:23:36;24.70;;;14.35;;
80241;SDS011;69556;45.004;7.532;2024-02-14T03:26:02;20.73;;;11.65;;
80241;SDS011;69556;45.004;7.532;2024-02-14T03:28:32;18.55;;;11.30;;
80241;SDS011;69556;45.004;7.532;2024-02-14T03:30:57;21.87;;;12.13;;
80241;SDS011;69556;45.004;7.532;2024-02-14T03:33:23;25.98;;;12.68;;
80241;SDS011;69556;45.004;7.532;2024-02-14T03:35:48;26.40;;;13.03;;
80241;SDS011;69556;45.004;7.532;2024-02-14T03:38:13;19.60;;;11.10;;
80241;SDS011;69556;45.004;7.532;2024-02-14T03:40:49;21.02;;;13.05;;
80241;SDS011;69556;45.004;7.532;2024-02-14T03:43:14;19.90;;;12.37;;
80241;SDS011;69556;45.004;7.532;2024-02-14T03:45:39;22.70;;;11.53;;
80241;SDS011;69556;45.004;7.532;2024-02-14T03:48:05;18.70;;;12.02;;
80241;SDS011;69556;45.004;7.532;2024-02-14T03:50:30;23.10;;;11.82;;
80241;SDS011;69556;45.004;7.532;2024-02-14T03:52:57;19.83;;;11.25;;
80241;SDS011;69556;45.004;7.532;2024-02-14T03:55:23;15.53;;;10.30;;
80241;SDS011;69556;45.004;7.532;2024-02-14T03:57:48;19.85;;;12.23;;
80241;SDS011;69556;45.004;7.532;2024-02-14T04:00:14;20.95;;;12.13;;
80241;SDS011;69556;45.004;7.532;2024-02-14T04:02:39;20.48;;;11.57;;
80241;SDS011;69556;45.004;7.532;2024-02-14T04:05:05;17.27;;;10.13;;
80241;SDS011;69556;45.004;7.532;2024-02-14T04:07:32;16.70;;;10.10;;
80241;SDS011;69556;45.004;7.532;2024-02-14T04:09:59;19.42;;;9.63;;
80241;SDS011;69556;45.004;7.532;2024-02-14T04:12:24;18.55;;;10.20;;
80241;SDS011;69556;45.004;7.532;2024-02-14T04:14:49;14.43;;;9.05;;
80241;SDS011;69556;45.004;7.532;2024-02-14T04:17:15;21.97;;;9.97;;
80241;SDS011;69556;45.004;7.532;2024-02-14T04:19:40;20.30;;;11.32;;
80241;SDS011;69556;45.004;7.532;2024-02-14T04:22:06;19.42;;;10.63;;
80241;SDS011;69556;45.004;7.532;2024-02-14T04:24:35;18.15;;;10.57;;
80241;SDS011;69556;45.004;7.532;2024-02-14T04:27:00;18.33;;;9.93;;
80241;SDS011;69556;45.004;7.532;2024-02-14T04:29:28;20.38;;;11.23;;
80241;SDS011;69556;45.004;7.532;2024-02-14T04:31:55;18.45;;;9.80;;
80241;SDS011;69556;45.004;7.532;2024-02-14T04:34:20;22.13;;;11.30;;
80241;SDS011;69556;45.004;7.532;2024-02-14T04:36:46;17.75;;;10.43;;
80241;SDS011;69556;45.004;7.532;2024-02-14T04:39:11;21.17;;;12.43;;
80241;SDS011;69556;45.004;7.532;2024-02-14T04:41:37;18.77;;;10.65;;
80241;SDS011;69556;45.004;7.532;2024-02-14T04:44:06;19.73;;;10.80;;
80241;SDS011;69556;45.004;7.532;2024-02-14T04:46:34;17.58;;;10.07;;
80241;SDS011;69556;45.004;7.532;2024-02-14T04:49:01;17.60;;;9.93;;
80241;SDS011;69556;45.004;7.532;2024-02-14T04:51:28;20.45;;;10.80;;
80241;SDS011;69556;45.004;7.532;2024-02-14T04:53:56;20.42;;;9.90;;
80241;SDS011;69556;45.004;7.532;2024-02-14T04:56:24;16.00;;;10.45;;
80241;SDS011;69556;45.004;7.532;2024-02-14T04:58:55;16.92;;;10.30;;
80241;SDS011;69556;45.004;7.532;2024-02-14T05:01:21;19.38;;;9.63;;
80241;SDS011;69556;45.004;7.532;2024-02-14T05:03:46;20.73;;;10.88;;
80241;SDS011;69556;45.004;7.532;2024-02-14T05:06:12;17.38;;;10.40;;
80241;SDS011;69556;45.004;7.532;2024-02-14T05:08:37;18.15;;;11.35;;
80241;SDS011;69556;45.004;7.532;2024-02-14T05:11:03;21.85;;;12.30;;
80241;SDS011;69556;45.004;7.532;2024-02-14T05:13:29;21.85;;;11.05;;
80241;SDS011;69556;45.004;7.532;2024-02-14T05:15:55;23.17;;;11.38;;
80241;SDS011;69556;45.004;7.532;2024-02-14T05:18:20;19.33;;;12.43;;
80241;SDS011;69556;45.004;7.532;2024-02-14T05:20:45;23.17;;;10.47;;
80241;SDS011;69556;45.004;7.532;2024-02-14T05:23:11;19.42;;;11.25;;
80241;SDS011;69556;45.004;7.532;2024-02-14T05:25:36;19.30;;;10.60;;
80241;SDS011;69556;45.004;7.532;2024-02-14T05:28:02;20.80;;;12.10;;
80241;SDS011;69556;45.004;7.532;2024-02-14T05:30:27;18.33;;;10.98;;
80241;SDS011;69556;45.004;7.532;2024-02-14T05:32:52;17.15;;;10.80;;
80241;SDS011;69556;45.004;7.532;2024-02-14T05:35:18;19.50;;;11.43;;
80241;SDS011;69556;45.004;7.532;2024-02-14T05:37:44;17.75;;;10.40;;
80241;SDS011;69556;45.004;7.532;2024-02-14T05:40:14;22.13;;;11.00;;
80241;SDS011;69556;45.004;7.532;2024-02-14T05:42:40;18.42;;;11.32;;
80241;SDS011;69556;45.004;7.532;2024-02-14T05:45:05;21.42;;;11.77;;
80241;SDS011;69556;45.004;7.532;2024-02-14T05:47:31;21.13;;;11.43;;
80241;SDS011;69556;45.004;7.532;2024-02-14T05:49:56;21.25;;;11.82;;
80241;SDS011;69556;45.004;7.532;2024-02-14T05:52:22;21.00;;;11.63;;
80241;SDS011;69556;45.004;7.532;2024-02-14T05:54:47;23.37;;;11.53;;
80241;SDS011;69556;45.004;7.532;2024-02-14T05:57:12;19.47;;;11.07;;
80241;SDS011;69556;45.004;7.532;2024-02-14T05:59:38;19.90;;;11.93;;
80241;SDS011;69556;45.004;7.532;2024-02-14T06:02:03;23.92;;;11.45;;
80241;SDS011;69556;45.004;7.532;2024-02-14T06:04:30;22.38;;;11.98;;
80241;SDS011;69556;45.004;7.532;2024-02-14T06:06:56;19.65;;;11.82;;
80241;SDS011;69556;45.004;7.532;2024-02-14T06:09:21;22.80;;;11.03;;
80241;SDS011;69556;45.004;7.532;2024-02-14T06:11:46;19.83;;;12.03;;
80241;SDS011;69556;45.004;7.532;2024-02-14T06:14:12;22.83;;;11.00;;
80241;SDS011;69556;45.004;7.532;2024-02-14T06:16:38;17.05;;;10.90;;
80241;SDS011;69556;45.004;7.532;2024-02-14T06:19:03;17.27;;;10.02;;
80241;SDS011;69556;45.004;7.532;2024-02-14T06:21:29;15.30;;;10.25;;
80241;SDS011;69556;45.004;7.532;2024-02-14T06:23:55;17.65;;;10.50;;
80241;SDS011;69556;45.004;7.532;2024-02-14T06:26:20;17.35;;;10.55;;
80241;SDS011;69556;45.004;7.532;2024-02-14T06:28:46;20.70;;;10.80;;
80241;SDS011;69556;45.004;7.532;2024-02-14T06:31:11;18.37;;;10.17;;
80241;SDS011;69556;45.004;7.532;2024-02-14T06:33:36;27.40;;;11.47;;
80241;SDS011;69556;45.004;7.532;2024-02-14T06:36:02;22.87;;;9.97;;
80241;SDS011;69556;45.004;7.532;2024-02-14T06:38:28;20.67;;;10.65;;
80241;SDS011;69556;45.004;7.532;2024-02-14T06:40:53;21.55;;;10.10;;
80241;SDS011;69556;45.004;7.532;2024-02-14T06:43:18;17.05;;;9.95;;
80241;SDS011;69556;45.004;7.532;2024-02-14T06:45:45;17.92;;;9.98;;
80241;SDS011;69556;45.004;7.532;2024-02-14T06:48:10;25.95;;;10.57;;
80241;SDS011;69556;45.004;7.532;2024-02-14T06:50:35;17.27;;;9.70;;
80241;SDS011;69556;45.004;7.532;2024-02-14T06:53:01;16.20;;;9.30;;
80241;SDS011;69556;45.004;7.532;2024-02-14T06:55:26;21.52;;;10.05;;
80241;SDS011;69556;45.004;7.532;2024-02-14T06:57:52;18.05;;;9.18;;
80241;SDS011;69556;45.004;7.532;2024-02-14T07:00:18;25.63;;;10.95;;
80241;SDS011;69556;45.004;7.532;2024-02-14T07:02:43;22.10;;;11.32;;
80241;SDS011;69556;45.004;7.532;2024-02-14T07:05:12;30.35;;;12.35;;
80241;SDS011;69556;45.004;7.532;2024-02-14T07:07:39;16.33;;;10.75;;
80241;SDS011;69556;45.004;7.532;2024-02-14T07:10:04;18.50;;;10.85;;
80241;SDS011;69556;45.004;7.532;2024-02-14T07:12:31;19.50;;;10.02;;
80241;SDS011;69556;45.004;7.532;2024-02-14T07:14:57;27.85;;;11.48;;
80241;SDS011;69556;45.004;7.532;2024-02-14T07:17:22;28.88;;;11.43;;
80241;SDS011;69556;45.004;7.532;2024-02-14T07:19:47;19.98;;;11.43;;
80241;SDS011;69556;45.004;7.532;2024-02-14T07:22:14;21.65;;;10.77;;
80241;SDS011;69556;45.004;7.532;2024-02-14T07:24:41;18.88;;;10.93;;
80241;SDS011;69556;45.004;7.532;2024-02-14T07:27:07;22.20;;;11.27;;
80241;SDS011;69556;45.004;7.532;2024-02-14T07:29:33;21.83;;;12.27;;
80241;SDS011;69556;45.004;7.532;2024-02-14T07:32:01;22.17;;;11.43;;
80241;SDS011;69556;45.004;7.532;2024-02-14T07:34:27;15.65;;;10.63;;
80241;SDS011;69556;45.004;7.532;2024-02-14T07:36:52;19.10;;;11.38;;
80241;SDS011;69556;45.004;7.532;2024-02-14T07:39:17;21.88;;;12.07;;
80241;SDS011;69556;45.004;7.532;2024-02-14T07:41:43;21.90;;;11.10;;
80241;SDS011;69556;45.004;7.532;2024-02-14T07:44:09;19.23;;;11.00;;
80241;SDS011;69556;45.004;7.532;2024-02-14T07:46:34;28.13;;;12.27;;
80241;SDS011;69556;45.004;7.532;2024-02-14T07:48:59;23.77;;;11.43;;
80241;SDS011;69556;45.004;7.532;2024-02-14T07:51:25;19.55;;;11.07;;
80241;SDS011;69556;45.004;7.532;2024-02-14T07:53:50;22.27;;;12.18;;
80241;SDS011;69556;45.004;7.532;2024-02-14T07:56:16;26.10;;;14.52;;
80241;SDS011;69556;45.004;7.532;2024-02-14T07:58:43;27.15;;;15.45;;
80241;SDS011;69556;45.004;7.532;2024-02-14T08:01:08;35.50;;;15.13;;
80241;SDS011;69556;45.004;7.532;2024-02-14T08:03:34;31.00;;;14.35;;
80241;SDS011;69556;45.004;7.532;2024-02-14T08:05:59;24.27;;;15.57;;
80241;SDS011;69556;45.004;7.532;2024-02-14T08:08:25;29.55;;;14.27;;
80241;SDS011;69556;45.004;7.532;2024-02-14T08:10:52;29.25;;;15.85;;
80241;SDS011;69556;45.004;7.532;2024-02-14T08:13:19;37.38;;;18.05;;
80241;SDS011;69556;45.004;7.532;2024-02-14T08:15:44;25.92;;;14.77;;
80241;SDS011;69556;45.004;7.532;2024-02-14T08:18:10;27.23;;;16.27;;
80241;SDS011;69556;45.004;7.532;2024-02-14T08:20:37;28.45;;;17.15;;
80241;SDS011;69556;45.004;7.532;2024-02-14T08:23:03;25.83;;;15.15;;
80241;SDS011;69556;45.004;7.532;2024-02-14T08:25:28;23.95;;;12.82;;
80241;SDS011;69556;45.004;7.532;2024-02-14T08:27:54;23.38;;;12.57;;
80241;SDS011;69556;45.004;7.532;2024-02-14T08:30:20;25.15;;;12.70;;
80241;SDS011;69556;45.004;7.532;2024-02-14T08:32:46;22.80;;;13.32;;
80241;SDS011;69556;45.004;7.532;2024-02-14T08:35:12;24.02;;;14.73;;
80241;SDS011;69556;45.004;7.532;2024-02-14T08:37:38;23.50;;;15.05;;
80241;SDS011;69556;45.004;7.532;2024-02-14T08:40:05;25.73;;;13.75;;
80241;SDS011;69556;45.004;7.532;2024-02-14T08:42:32;37.42;;;15.60;;
80241;SDS011;69556;45.004;7.532;2024-02-14T08:44:58;23.50;;;13.55;;
80241;SDS011;69556;45.004;7.532;2024-02-14T08:47:23;28.03;;;13.63;;
80241;SDS011;69556;45.004;7.532;2024-02-14T08:49:49;24.00;;;12.20;;
80241;SDS011;69556;45.004;7.532;2024-02-14T08:52:14;23.67;;;13.65;;
80241;SDS011;69556;45.004;7.532;2024-02-14T08:54:40;28.23;;;16.67;;
80241;SDS011;69556;45.004;7.532;2024-02-14T08:57:05;31.03;;;16.77;;
80241;SDS011;69556;45.004;7.532;2024-02-14T08:59:30;23.40;;;14.43;;
80241;SDS011;69556;45.004;7.532;2024-02-14T09:01:56;31.53;;;16.40;;
80241;SDS011;69556;45.004;7.532;2024-02-14T09:04:21;26.67;;;15.52;;
80241;SDS011;69556;45.004;7.532;2024-02-14T09:06:47;23.10;;;15.50;;
80241;SDS011;69556;45.004;7.532;2024-02-14T09:09:12;28.63;;;15.13;;
80241;SDS011;69556;45.004;7.532;2024-02-14T09:11:39;30.40;;;15.02;;
80241;SDS011;69556;45.004;7.532;2024-02-14T09:14:05;24.77;;;14.63;;
80241;SDS011;69556;45.004;7.532;2024-02-14T09:16:32;30.20;;;15.88;;
80241;SDS011;69556;45.004;7.532;2024-02-14T09:19:00;27.10;;;15.20;;
80241;SDS011;69556;45.004;7.532;2024-02-14T09:21:30;24.00;;;14.27;;
80241;SDS011;69556;45.004;7.532;2024-02-14T09:23:55;24.55;;;14.60;;
80241;SDS011;69556;45.004;7.532;2024-02-14T09:26:21;34.97;;;16.40;;
80241;SDS011;69556;45.004;7.532;2024-02-14T09:28:47;24.52;;;13.70;;
80241;SDS011;69556;45.004;7.532;2024-02-14T09:31:16;31.40;;;13.80;;
80241;SDS011;69556;45.004;7.532;2024-02-14T09:33:42;32.20;;;13.75;;
80241;SDS011;69556;45.004;7.532;2024-02-14T09:36:08;25.70;;;15.02;;
80241;SDS011;69556;45.004;7.532;2024-02-14T09:38:33;22.92;;;14.25;;
80241;SDS011;69556;45.004;7.532;2024-02-14T09:41:04;27.10;;;15.40;;
80241;SDS011;69556;45.004;7.532;2024-02-14T09:43:49;21.48;;;14.38;;
80241;SDS011;69556;45.004;7.532;2024-02-14T09:46:14;34.63;;;14.63;;
80241;SDS011;69556;45.004;7.532;2024-02-14T09:48:41;27.80;;;14.02;;
80241;SDS011;69556;45.004;7.532;2024-02-14T09:51:08;24.23;;;14.27;;
80241;SDS011;69556;45.004;7.532;2024-02-14T09:53:34;21.30;;;12.65;;
80241;SDS011;69556;45.004;7.532;2024-02-14T09:56:01;24.90;;;13.50;;
80241;SDS011;69556;45.004;7.532;2024-02-14T09:58:27;17.95;;;9.98;;
80241;SDS011;69556;45.004;7.532;2024-02-14T10:01:00;14.68;;;9.73;;
80241;SDS011;69556;45.004;7.532;2024-02-14T10:03:25;20.25;;;12.90;;
80241;SDS011;69556;45.004;7.532;2024-02-14T10:05:51;15.68;;;10.90;;
80241;SDS011;69556;45.004;7.532;2024-02-14T10:08:18;21.92;;;12.07;;
80241;SDS011;69556;45.004;7.532;2024-02-14T10:10:44;23.00;;;12.30;;
80241;SDS011;69556;45.004;7.532;2024-02-14T10:13:10;25.40;;;13.80;;
80241;SDS011;69556;45.004;7.532;2024-02-14T10:15:36;24.02;;;12.70;;
80241;SDS011;69556;45.004;7.532;2024-02-14T10:18:01;16.30;;;10.13;;
80241;SDS011;69556;45.004;7.532;2024-02-14T10:20:28;19.30;;;11.32;;
80241;SDS011;69556;45.004;7.532;2024-02-14T10:23:02;17.05;;;10.40;;
80241;SDS011;69556;45.004;7.532;2024-02-14T10:25:28;17.70;;;10.65;;
80241;SDS011;69556;45.004;7.532;2024-02-14T10:27:54;22.50;;;10.90;;
80241;SDS011;69556;45.004;7.532;2024-02-14T10:30:20;18.65;;;11.55;;
80241;SDS011;69556;45.004;7.532;2024-02-14T10:32:46;33.55;;;18.02;;
80241;SDS011;69556;45.004;7.532;2024-02-14T10:35:15;16.70;;;11.98;;
80241;SDS011;69556;45.004;7.532;2024-02-14T10:37:41;23.30;;;14.50;;
80241;SDS011;69556;45.004;7.532;2024-02-14T10:40:07;19.27;;;11.57;;
80241;SDS011;69556;45.004;7.532;2024-02-14T10:42:34;16.92;;;10.27;;
80241;SDS011;69556;45.004;7.532;2024-02-14T10:45:00;15.95;;;11.05;;
80241;SDS011;69556;45.004;7.532;2024-02-14T10:47:31;15.55;;;10.00;;
80241;SDS011;69556;45.004;7.532;2024-02-14T10:50:01;15.18;;;10.43;;
80241;SDS011;69556;45.004;7.532;2024-02-14T10:52:31;16.83;;;10.10;;
80241;SDS011;69556;45.004;7.532;2024-02-14T10:54:59;17.45;;;10.00;;
80241;SDS011;69556;45.004;7.532;2024-02-14T10:57:27;14.93;;;9.23;;
80241;SDS011;69556;45.004;7.532;2024-02-14T10:59:54;17.25;;;10.35;;
80241;SDS011;69556;45.004;7.532;2024-02-14T11:02:20;18.75;;;9.50;;
80241;SDS011;69556;45.004;7.532;2024-02-14T11:04:47;15.60;;;9.02;;
80241;SDS011;69556;45.004;7.532;2024-02-14T11:07:13;18.58;;;9.88;;
80241;SDS011;69556;45.004;7.532;2024-02-14T11:09:40;18.77;;;9.05;;
80241;SDS011;69556;45.004;7.532;2024-02-14T11:12:09;17.35;;;9.38;;
80241;SDS011;69556;45.004;7.532;2024-02-14T11:14:35;16.35;;;8.90;;
80241;SDS011;69556;45.004;7.532;2024-02-14T11:17:04;16.30;;;9.70;;
80241;SDS011;69556;45.004;7.532;2024-02-14T11:19:34;16.35;;;8.63;;
80241;SDS011;69556;45.004;7.532;2024-02-14T11:22:13;15.73;;;8.45;;
80241;SDS011;69556;45.004;7.532;2024-02-14T11:24:45;20.83;;;8.88;;
80241;SDS011;69556;45.004;7.532;2024-02-14T11:27:11;14.05;;;8.70;;
80241;SDS011;69556;45.004;7.532;2024-02-14T11:29:40;15.10;;;9.07;;
80241;SDS011;69556;45.004;7.532;2024-02-14T11:32:08;15.73;;;8.98;;
80241;SDS011;69556;45.004;7.532;2024-02-14T11:34:36;21.45;;;9.55;;
80241;SDS011;69556;45.004;7.532;2024-02-14T11:37:01;15.32;;;9.63;;
80241;SDS011;69556;45.004;7.532;2024-02-14T11:39:27;18.90;;;9.25;;
80241;SDS011;69556;45.004;7.532;2024-02-14T11:41:52;21.05;;;9.02;;
80241;SDS011;69556;45.004;7.532;2024-02-14T11:44:20;20.38;;;9.50;;
80241;SDS011;69556;45.004;7.532;2024-02-14T11:46:47;17.52;;;8.80;;
80241;SDS011;69556;45.004;7.532;2024-02-14T11:49:12;22.13;;;9.75;;
80241;SDS011;69556;45.004;7.532;2024-02-14T11:51:38;16.25;;;9.50;;
80241;SDS011;69556;45.004;7.532;2024-02-14T11:54:04;16.42;;;8.68;;
80241;SDS011;69556;45.004;7.532;2024-02-14T11:59:01;18.92;;;9.38;;
80241;SDS011;69556;45.004;7.532;2024-02-14T12:01:28;19.13;;;10.00;;
80241;SDS011;69556;45.004;7.532;2024-02-14T12:03:55;15.32;;;8.88;;
80241;SDS011;69556;45.004;7.532;2024-02-14T12:06:22;17.80;;;10.10;;
80241;SDS011;69556;45.004;7.532;2024-02-14T12:08:47;16.85;;;10.60;;
80241;SDS011;69556;45.004;7.532;2024-02-14T12:11:13;17.27;;;9.65;;
80241;SDS011;69556;45.004;7.532;2024-02-14T12:13:38;20.10;;;9.27;;
80241;SDS011;69556;45.004;7.532;2024-02-14T12:16:08;19.38;;;9.48;;
80241;SDS011;69556;45.004;7.532;2024-02-14T12:18:35;22.90;;;9.85;;
80241;SDS011;69556;45.004;7.532;2024-02-14T12:21:04;17.15;;;8.43;;
80241;SDS011;69556;45.004;7.532;2024-02-14T12:23:32;18.83;;;8.38;;
80241;SDS011;69556;45.004;7.532;2024-02-14T12:26:01;15.90;;;9.00;;
80241;SDS011;69556;45.004;7.532;2024-02-14T12:28:28;17.27;;;9.60;;
80241;SDS011;69556;45.004;7.532;2024-02-14T12:30:55;14.95;;;9.05;;
80241;SDS011;69556;45.004;7.532;2024-02-14T12:33:22;14.75;;;9.52;;
80241;SDS011;69556;45.004;7.532;2024-02-14T12:35:51;15.43;;;9.48;;
80241;SDS011;69556;45.004;7.532;2024-02-14T12:38:19;15.35;;;9.25;;
80241;SDS011;69556;45.004;7.532;2024-02-14T12:40:45;15.07;;;9.48;;
80241;SDS011;69556;45.004;7.532;2024-02-14T12:43:11;19.88;;;10.18;;
80241;SDS011;69556;45.004;7.532;2024-02-14T12:45:37;24.67;;;11.60;;
80241;SDS011;69556;45.004;7.532;2024-02-14T12:48:04;19.55;;;12.18;;
80241;SDS011;69556;45.004;7.532;2024-02-14T12:50:33;24.23;;;13.10;;
80241;SDS011;69556;45.004;7.532;2024-02-14T12:53:00;21.95;;;11.48;;
80241;SDS011;69556;45.004;7.532;2024-02-14T12:55:26;17.95;;;11.50;;
80241;SDS011;69556;45.004;7.532;2024-02-14T12:57:53;16.98;;;10.50;;
80241;SDS011;69556;45.004;7.532;2024-02-14T13:00:19;21.08;;;12.02;;
80241;SDS011;69556;45.004;7.532;2024-02-14T13:02:46;18.40;;;11.65;;
80241;SDS011;69556;45.004;7.532;2024-02-14T13:05:12;19.65;;;10.35;;
80241;SDS011;69556;45.004;7.532;2024-02-14T13:07:38;25.13;;;11.60;;
80241;SDS011;69556;45.004;7.532;2024-02-14T13:10:03;19.17;;;11.25;;
80241;SDS011;69556;45.004;7.532;2024-02-14T13:12:29;22.33;;;10.98;;
80241;SDS011;69556;45.004;7.532;2024-02-14T13:14:54;16.80;;;9.88;;
80241;SDS011;69556;45.004;7.532;2024-02-14T13:17:20;18.20;;;10.07;;
80241;SDS011;69556;45.004;7.532;2024-02-14T13:19:45;23.02;;;13.40;;
80241;SDS011;69556;45.004;7.532;2024-02-14T13:22:11;22.67;;;9.85;;
80241;SDS011;69556;45.004;7.532;2024-02-14T13:24:37;18.27;;;10.77;;
80241;SDS011;69556;45.004;7.532;2024-02-14T13:27:03;20.85;;;10.32;;
80241;SDS011;69556;45.004;7.532;2024-02-14T13:29:28;19.77;;;10.10;;
80241;SDS011;69556;45.004;7.532;2024-02-14T13:31:54;19.97;;;10.77;;
80241;SDS011;69556;45.004;7.532;2024-02-14T13:34:19;20.83;;;10.73;;
80241;SDS011;69556;45.004;7.532;2024-02-14T13:36:47;19.17;;;10.63;;
80241;SDS011;69556;45.004;7.532;2024-02-14T13:39:13;20.60;;;10.00;;
80241;SDS011;69556;45.004;7.532;2024-02-14T13:41:39;19.92;;;11.23;;
80241;SDS011;69556;45.004;7.532;2024-02-14T13:44:08;17.42;;;10.20;;
80241;SDS011;69556;45.004;7.532;2024-02-14T13:46:33;19.55;;;9.98;;
80241;SDS011;69556;45.004;7.532;2024-02-14T13:48:59;18.08;;;9.73;;
80241;SDS011;69556;45.004;7.532;2024-02-14T13:51:25;17.27;;;9.70;;
80241;SDS011;69556;45.004;7.532;2024-02-14T13:53:50;15.35;;;8.90;;
80241;SDS011;69556;45.004;7.532;2024-02-14T13:56:15;17.33;;;9.50;;
80241;SDS011;69556;45.004;7.532;2024-02-14T13:58:42;16.58;;;10.20;;
80241;SDS011;69556;45.004;7.532;2024-02-14T14:01:07;20.20;;;9.68;;
80241;SDS011;69556;45.004;7.532;2024-02-14T14:03:33;17.65;;;9.85;;
80241;SDS011;69556;45.004;7.532;2024-02-14T14:06:01;19.83;;;10.80;;
80241;SDS011;69556;45.004;7.532;2024-02-14T14:08:27;18.20;;;9.30;;
80241;SDS011;69556;45.004;7.532;2024-02-14T14:10:53;16.38;;;9.23;;
80241;SDS011;69556;45.004;7.532;2024-02-14T14:13:19;19.40;;;9.60;;
80241;SDS011;69556;45.004;7.532;2024-02-14T14:15:44;17.45;;;8.75;;
80241;SDS011;69556;45.004;7.532;2024-02-14T14:18:10;18.77;;;9.37;;
80241;SDS011;69556;45.004;7.532;2024-02-14T14:20:36;17.98;;;10.00;;
80241;SDS011;69556;45.004;7.532;2024-02-14T14:23:01;21.17;;;9.25;;
80241;SDS011;69556;45.004;7.532;2024-02-14T14:25:28;17.27;;;9.25;;